createdAt,value
2022-08-26T00:01:10.487Z,20.67
2022-08-26T00:03:37.121Z,20.63
2022-08-26T00:06:03.756Z,20.74
2022-08-26T00:08:30.196Z,20.93
2022-08-26T00:10:56.824Z,21.07
2022-08-26T00:13:26.330Z,20.90
2022-08-26T00:15:52.912Z,20.88
2022-08-26T00:18:22.286Z,20.90
2022-08-26T00:20:49.251Z,20.80
2022-08-26T00:23:15.791Z,20.70
2022-08-26T00:25:42.730Z,20.63
2022-08-26T00:28:09.612Z,20.63
2022-08-26T00:30:38.021Z,20.52
2022-08-26T00:33:06.129Z,20.45
2022-08-26T00:35:34.769Z,20.38
2022-08-26T00:38:02.920Z,20.31
2022-08-26T00:40:34.716Z,20.36
2022-08-26T00:43:02.588Z,20.39
2022-08-26T00:45:42.096Z,20.26
2022-08-26T00:48:10.115Z,20.34
2022-08-26T00:50:41.811Z,20.33
2022-08-26T00:53:21.540Z,20.39
2022-08-26T00:55:57.896Z,20.31
2022-08-26T00:58:26.904Z,20.20
2022-08-26T01:00:54.078Z,20.10
2022-08-26T01:03:25.516Z,19.98
2022-08-26T01:05:56.971Z,19.94
2022-08-26T01:08:24.760Z,20.07
2022-08-26T01:10:54.922Z,20.05
2022-08-26T01:13:23.056Z,20.28
2022-08-26T01:15:55.889Z,20.44
2022-08-26T01:18:23.260Z,20.40
2022-08-26T01:21:02.884Z,20.28
2022-08-26T01:23:33.728Z,20.22
2022-08-26T01:26:05.132Z,20.08
2022-08-26T01:28:33.780Z,20.07
2022-08-26T01:31:03.865Z,19.91
2022-08-26T01:33:42.569Z,19.91
2022-08-26T01:36:10.879Z,19.94
2022-08-26T01:38:37.452Z,20.07
2022-08-26T01:41:04.992Z,19.92
2022-08-26T01:43:45.932Z,19.85
2022-08-26T01:46:14.548Z,19.78
2022-08-26T01:48:44.040Z,19.59
2022-08-26T01:51:13.902Z,19.56
2022-08-26T01:53:42.097Z,19.40
2022-08-26T01:56:12.959Z,19.49
2022-08-26T01:58:52.249Z,19.66
2022-08-26T02:01:19.964Z,19.71
2022-08-26T02:04:17.632Z,19.60
2022-08-26T02:06:45.036Z,19.78
2022-08-26T02:09:12.603Z,20.04
2022-08-26T02:11:41.514Z,19.71
2022-08-26T02:14:24.497Z,19.64
2022-08-26T02:16:55.310Z,19.69
2022-08-26T02:19:29.365Z,19.61
2022-08-26T02:21:59.577Z,19.60
2022-08-26T02:24:29.839Z,19.34
2022-08-26T02:26:58.080Z,19.23
2022-08-26T02:29:29.133Z,19.13
2022-08-26T02:31:57.889Z,19.17
2022-08-26T02:34:31.326Z,19.19
2022-08-26T02:37:00.030Z,19.26
2022-08-26T02:39:27.283Z,19.33
2022-08-26T02:41:55.064Z,19.19
2022-08-26T02:44:21.493Z,19.14
2022-08-26T02:46:48.275Z,19.13
2022-08-26T02:49:17.138Z,19.21
2022-08-26T02:51:43.818Z,19.20
2022-08-26T02:54:10.402Z,19.14
2022-08-26T02:56:37.421Z,19.15
2022-08-26T02:59:04.120Z,19.09
2022-08-26T03:01:34.208Z,19.21
2022-08-26T03:04:02.588Z,18.96
2022-08-26T03:06:29.712Z,19.04
2022-08-26T03:08:56.388Z,19.11
2022-08-26T03:11:23.763Z,18.89
2022-08-26T03:13:51.830Z,19.00
2022-08-26T03:16:18.855Z,18.97
2022-08-26T03:18:52.106Z,19.08
2022-08-26T03:21:19.725Z,19.17
2022-08-26T03:23:46.507Z,18.88
2022-08-26T03:26:14.835Z,18.75
2022-08-26T03:29:01.714Z,18.73
2022-08-26T03:31:29.623Z,18.76
2022-08-26T03:33:59.577Z,18.73
2022-08-26T03:36:27.132Z,18.79
2022-08-26T03:38:53.775Z,18.74
2022-08-26T03:41:21.260Z,18.70
2022-08-26T03:43:50.630Z,18.89
2022-08-26T03:46:18.640Z,18.87
2022-08-26T03:48:45.718Z,18.89
2022-08-26T03:51:15.101Z,19.14
2022-08-26T03:53:45.373Z,19.15
2022-08-26T03:56:11.769Z,19.01
2022-08-26T03:58:38.751Z,18.91
2022-08-26T04:01:09.187Z,18.76
2022-08-26T04:03:54.247Z,18.75
2022-08-26T04:06:20.707Z,18.58
2022-08-26T04:08:48.141Z,18.69
2022-08-26T04:11:22.779Z,18.54
2022-08-26T04:13:50.319Z,18.54
2022-08-26T04:16:17.974Z,18.71
2022-08-26T04:18:46.893Z,18.77
2022-08-26T04:21:18.247Z,18.77
2022-08-26T04:23:47.305Z,18.65
2022-08-26T04:26:15.094Z,18.75
2022-08-26T04:28:41.711Z,18.77
2022-08-26T04:31:12.427Z,18.55
2022-08-26T04:33:41.770Z,19.40
2022-08-26T04:36:09.207Z,18.80
2022-08-26T04:38:36.455Z,18.75
2022-08-26T04:41:05.561Z,18.68
2022-08-26T04:43:41.710Z,18.49
2022-08-26T04:46:09.447Z,18.72
2022-08-26T04:48:40.806Z,18.69
2022-08-26T04:51:07.364Z,18.70
2022-08-26T04:53:34.777Z,18.75
2022-08-26T04:56:01.702Z,18.54
2022-08-26T04:58:30.970Z,18.49
2022-08-26T05:00:58.371Z,18.48
2022-08-26T05:03:27.038Z,18.51
2022-08-26T05:05:54.395Z,18.60
2022-08-26T05:08:22.536Z,18.50
2022-08-26T05:10:54.145Z,18.37
2022-08-26T05:13:21.082Z,18.62
2022-08-26T05:15:48.881Z,18.86
2022-08-26T05:18:17.759Z,19.01
2022-08-26T05:20:50.245Z,19.06
2022-08-26T05:23:17.643Z,19.23
2022-08-26T05:25:46.973Z,19.55
2022-08-26T05:28:16.125Z,19.62
2022-08-26T05:30:44.469Z,20.11
2022-08-26T05:33:12.079Z,20.06
2022-08-26T05:35:39.133Z,20.16
2022-08-26T05:38:12.410Z,20.24
2022-08-26T05:40:44.350Z,20.89
2022-08-26T05:43:11.998Z,21.06
2022-08-26T05:45:45.920Z,21.32
2022-08-26T05:48:14.328Z,21.44
2022-08-26T05:50:43.276Z,21.76
2022-08-26T05:53:11.591Z,21.81
2022-08-26T05:55:45.627Z,21.89
2022-08-26T05:58:13.102Z,22.02
2022-08-26T06:00:40.354Z,21.96
2022-08-26T06:03:08.626Z,21.93
2022-08-26T06:05:39.320Z,21.81
2022-08-26T06:08:13.531Z,22.04
2022-08-26T06:11:01.421Z,22.23
2022-08-26T06:13:30.351Z,22.80
2022-08-26T06:16:00.005Z,23.07
2022-08-26T06:18:34.661Z,22.93
2022-08-26T06:21:22.132Z,23.58
2022-08-26T06:24:09.924Z,23.46
2022-08-26T06:26:37.107Z,23.43
2022-08-26T06:29:05.683Z,23.41
2022-08-26T06:31:33.808Z,23.78
2022-08-26T06:34:01.257Z,23.91
2022-08-26T06:36:30.608Z,23.74
2022-08-26T06:39:00.828Z,24.06
2022-08-26T06:41:27.438Z,24.28
2022-08-26T06:43:53.874Z,24.26
2022-08-26T06:46:21.693Z,24.32
2022-08-26T06:48:48.723Z,24.45
2022-08-26T06:51:17.957Z,24.46
2022-08-26T06:53:46.927Z,24.26
2022-08-26T06:56:18.822Z,24.09
2022-08-26T06:58:46.064Z,24.33
2022-08-26T07:01:24.300Z,24.52
2022-08-26T07:03:52.307Z,24.40
2022-08-26T07:06:21.600Z,24.43
2022-08-26T07:08:53.250Z,24.56
2022-08-26T07:11:20.872Z,24.50
2022-08-26T07:13:47.803Z,24.51
2022-08-26T07:16:17.458Z,24.79
2022-08-26T07:18:45.758Z,24.73
2022-08-26T07:21:15.539Z,24.90
2022-08-26T07:23:42.277Z,25.14
2022-08-26T07:26:12.057Z,25.17
2022-08-26T07:28:38.518Z,25.31
2022-08-26T07:31:07.444Z,25.38
2022-08-26T07:33:38.585Z,25.09
2022-08-26T07:36:07.975Z,25.46
2022-08-26T07:38:35.889Z,25.49
2022-08-26T07:41:02.779Z,25.64
2022-08-26T07:43:30.284Z,25.83
2022-08-26T07:45:57.221Z,25.62
2022-08-26T07:48:24.100Z,25.68
2022-08-26T07:50:52.572Z,25.86
2022-08-26T07:53:21.385Z,25.87
2022-08-26T07:55:48.515Z,25.97
2022-08-26T07:58:15.897Z,26.31
2022-08-26T08:00:42.412Z,26.06
2022-08-26T08:03:10.413Z,26.07
2022-08-26T08:05:38.026Z,26.27
2022-08-26T08:08:26.747Z,26.36
2022-08-26T08:10:55.546Z,26.45
2022-08-26T08:13:23.073Z,26.47
2022-08-26T08:15:50.528Z,26.12
2022-08-26T08:18:18.085Z,26.45
2022-08-26T08:20:59.273Z,26.63
2022-08-26T08:23:32.272Z,26.78
2022-08-26T08:26:04.207Z,26.86
2022-08-26T08:28:30.780Z,27.08
2022-08-26T08:30:57.825Z,26.87
2022-08-26T08:33:24.458Z,26.77
2022-08-26T08:35:50.925Z,26.82
2022-08-26T08:38:17.442Z,27.08
2022-08-26T08:40:45.494Z,26.81
2022-08-26T08:43:14.796Z,26.84
2022-08-26T08:45:50.739Z,27.08
2022-08-26T08:48:31.447Z,27.05
2022-08-26T08:51:08.336Z,27.11
2022-08-26T08:53:42.188Z,27.44
2022-08-26T08:56:23.734Z,27.40
2022-08-26T08:59:14.654Z,27.24
2022-08-26T09:02:13.275Z,27.57
2022-08-26T09:05:02.143Z,27.63
2022-08-26T09:07:48.090Z,27.64
2022-08-26T09:10:50.973Z,27.78
2022-08-26T09:13:25.287Z,27.85
2022-08-26T09:15:59.664Z,27.48
2022-08-26T09:18:47.504Z,27.41
2022-08-26T09:21:17.928Z,27.93
2022-08-26T09:23:49.339Z,28.12
2022-08-26T09:26:39.142Z,28.10
2022-08-26T09:29:13.648Z,28.33
2022-08-26T09:31:41.332Z,28.54
2022-08-26T09:34:17.345Z,28.16
2022-08-26T09:36:48.531Z,28.74
2022-08-26T09:39:24.027Z,28.55
2022-08-26T09:42:08.020Z,28.78
2022-08-26T09:44:56.799Z,28.80
2022-08-26T09:47:30.101Z,29.04
2022-08-26T09:50:09.917Z,29.16
2022-08-26T09:52:40.494Z,29.30
2022-08-26T09:55:23.088Z,29.36
2022-08-26T09:57:52.864Z,29.28
2022-08-26T10:00:39.504Z,29.40
2022-08-26T10:03:10.658Z,29.20
2022-08-26T10:05:41.277Z,29.47
2022-08-26T10:08:33.251Z,29.67
2022-08-26T10:11:04.381Z,29.46
2022-08-26T10:13:31.177Z,29.60
2022-08-26T10:16:10.761Z,29.89
2022-08-26T10:18:42.977Z,30.02
2022-08-26T10:21:18.037Z,30.03
2022-08-26T10:23:51.697Z,30.22
2022-08-26T10:26:26.547Z,30.31
2022-08-26T10:29:08.900Z,29.84
2022-08-26T10:31:44.412Z,30.08
2022-08-26T10:34:12.476Z,30.34
2022-08-26T10:39:46.012Z,29.95
2022-08-26T10:42:32.248Z,30.03
2022-08-26T10:45:14.994Z,30.10
2022-08-26T10:47:54.088Z,30.55
2022-08-26T10:50:24.755Z,30.62
2022-08-26T10:53:05.811Z,30.62
2022-08-26T10:55:49.039Z,30.37
2022-08-26T10:58:27.666Z,30.23
2022-08-26T11:01:33.848Z,30.24
2022-08-26T11:04:16.820Z,30.66
2022-08-26T11:06:46.007Z,31.00
2022-08-26T11:09:45.048Z,30.91
2022-08-26T11:12:42.031Z,31.12
2022-08-26T11:15:36.855Z,31.31
2022-08-26T11:18:09.490Z,30.92
2022-08-26T11:20:41.898Z,31.23
2022-08-26T11:23:20.608Z,31.56
2022-08-26T11:25:56.938Z,31.49
2022-08-26T11:28:34.592Z,31.63
2022-08-26T11:31:01.668Z,31.53
2022-08-26T11:33:43.819Z,30.98
2022-08-26T11:36:25.966Z,30.91
2022-08-26T11:38:54.664Z,30.86
2022-08-26T11:41:22.897Z,30.72
2022-08-26T11:43:52.162Z,30.67
2022-08-26T11:46:28.246Z,31.18
2022-08-26T11:49:05.133Z,30.86
2022-08-26T11:51:35.969Z,31.17
2022-08-26T11:54:30.547Z,31.26
2022-08-26T11:57:09.285Z,31.54
2022-08-26T11:59:39.075Z,31.68
2022-08-26T12:02:15.272Z,31.71
2022-08-26T12:04:46.274Z,31.47
2022-08-26T12:07:13.353Z,31.86
2022-08-26T12:09:56.427Z,31.87
2022-08-26T12:12:42.434Z,31.85
2022-08-26T12:15:22.662Z,31.92
2022-08-26T12:17:54.653Z,32.15
2022-08-26T12:20:48.536Z,32.09
2022-08-26T12:23:24.756Z,32.25
2022-08-26T12:25:54.060Z,32.40
2022-08-26T12:28:21.726Z,32.00
2022-08-26T12:31:04.166Z,32.07
2022-08-26T12:33:33.927Z,31.77
2022-08-26T12:36:01.946Z,32.12
2022-08-26T12:38:29.794Z,31.99
2022-08-26T12:40:57.070Z,32.07
2022-08-26T12:43:56.640Z,32.04
2022-08-26T12:46:28.254Z,31.92
2022-08-26T12:48:54.974Z,32.03
2022-08-26T12:51:28.245Z,31.66
2022-08-26T12:53:55.477Z,31.70
2022-08-26T12:56:42.990Z,31.12
2022-08-26T12:59:23.142Z,31.35
2022-08-26T13:01:50.483Z,31.24
2022-08-26T13:04:35.788Z,30.75
2022-08-26T13:07:21.655Z,30.97
2022-08-26T13:09:50.462Z,30.80
2022-08-26T13:12:28.770Z,30.78
2022-08-26T13:14:55.764Z,30.58
2022-08-26T13:17:22.181Z,30.50
2022-08-26T13:19:48.608Z,30.15
2022-08-26T13:22:18.997Z,30.29
2022-08-26T13:24:45.728Z,30.11
2022-08-26T13:27:14.856Z,30.24
2022-08-26T13:29:41.534Z,30.52
2022-08-26T13:32:09.131Z,30.81
2022-08-26T13:34:37.428Z,30.68
2022-08-26T13:37:04.698Z,30.78
2022-08-26T13:39:31.229Z,30.91
2022-08-26T13:41:57.724Z,30.92
2022-08-26T13:44:24.437Z,30.58
2022-08-26T13:46:51.136Z,30.74
2022-08-26T13:49:17.647Z,30.73
2022-08-26T13:51:44.161Z,30.54
2022-08-26T13:54:10.645Z,30.34
2022-08-26T13:56:37.390Z,30.68
2022-08-26T13:59:05.625Z,30.64
2022-08-26T14:01:34.178Z,30.76
2022-08-26T14:04:00.677Z,30.86
2022-08-26T14:06:27.208Z,31.08
2022-08-26T14:08:53.657Z,31.17
2022-08-26T14:11:21.291Z,31.08
2022-08-26T14:13:47.842Z,30.97
2022-08-26T14:16:24.190Z,31.16
2022-08-26T14:18:51.119Z,30.47
2022-08-26T14:21:18.135Z,30.27
2022-08-26T14:23:44.746Z,30.19
2022-08-26T14:26:14.287Z,30.12
2022-08-26T14:28:55.952Z,29.94
2022-08-26T14:31:23.757Z,29.89
2022-08-26T14:33:50.578Z,29.49
2022-08-26T14:36:29.078Z,29.41
2022-08-26T14:38:58.133Z,29.42
2022-08-26T14:41:25.360Z,29.11
2022-08-26T14:44:00.178Z,28.93
2022-08-26T14:46:30.245Z,29.07
2022-08-26T14:49:01.047Z,28.93
2022-08-26T14:51:30.239Z,28.66
2022-08-26T14:54:11.752Z,28.42
2022-08-26T14:56:48.875Z,28.21
2022-08-26T14:59:18.613Z,28.27
2022-08-26T15:01:45.508Z,28.16
2022-08-26T15:04:12.340Z,27.97
2022-08-26T15:06:39.418Z,27.74
2022-08-26T15:09:06.055Z,27.71
2022-08-26T15:11:32.932Z,27.80
2022-08-26T15:13:59.884Z,27.69
2022-08-26T15:16:28.886Z,27.79
2022-08-26T15:18:55.889Z,27.70
2022-08-26T15:21:23.208Z,27.39
2022-08-26T15:23:50.395Z,27.25
2022-08-26T15:26:18.139Z,27.32
2022-08-26T15:28:45.148Z,27.33
2022-08-26T15:31:12.046Z,27.37
2022-08-26T15:33:39.174Z,27.37
2022-08-26T15:36:07.768Z,27.17
2022-08-26T15:38:37.357Z,26.86
2022-08-26T15:41:05.691Z,26.94
2022-08-26T15:43:32.536Z,26.96
2022-08-26T15:45:59.257Z,26.83
2022-08-26T15:48:25.753Z,26.77
2022-08-26T15:51:00.196Z,26.61
2022-08-26T15:53:29.486Z,26.56
2022-08-26T15:55:56.734Z,26.71
2022-08-26T15:58:24.964Z,26.75
2022-08-26T16:00:54.325Z,26.63
2022-08-26T16:03:20.847Z,26.68
2022-08-26T16:05:48.076Z,26.70
2022-08-26T16:08:15.393Z,26.79
2022-08-26T16:10:49.951Z,26.79
2022-08-26T16:13:18.709Z,26.94
2022-08-26T16:15:46.095Z,26.98
2022-08-26T16:18:13.851Z,26.87
2022-08-26T16:20:51.473Z,26.97
2022-08-26T16:23:35.932Z,26.99
2022-08-26T16:26:10.838Z,26.99
2022-08-26T16:28:38.368Z,26.88
2022-08-26T16:31:06.175Z,26.78
2022-08-26T16:33:32.736Z,26.70
2022-08-26T16:35:59.132Z,26.85
2022-08-26T16:38:25.616Z,26.85
2022-08-26T16:40:52.035Z,26.65
2022-08-26T16:43:18.454Z,26.72
2022-08-26T16:45:44.925Z,26.70
2022-08-26T16:48:11.455Z,26.72
2022-08-26T16:50:40.552Z,26.72
2022-08-26T16:53:07.349Z,26.68
2022-08-26T16:55:35.262Z,26.76
2022-08-26T16:58:02.180Z,26.49
2022-08-26T17:00:31.166Z,26.71
2022-08-26T17:02:59.753Z,26.58
2022-08-26T17:05:27.637Z,26.58
2022-08-26T17:07:59.437Z,26.43
2022-08-26T17:10:27.735Z,26.28
2022-08-26T17:12:54.832Z,26.20
2022-08-26T17:15:23.666Z,26.15
2022-08-26T17:17:54.213Z,26.12
2022-08-26T17:20:22.625Z,25.82
2022-08-26T17:22:51.536Z,26.05
2022-08-26T17:25:21.889Z,25.89
2022-08-26T17:27:48.726Z,25.93
2022-08-26T17:30:16.448Z,26.02
2022-08-26T17:32:43.426Z,25.72
2022-08-26T17:35:13.034Z,25.77
2022-08-26T17:37:40.267Z,25.69
2022-08-26T17:40:09.853Z,25.80
2022-08-26T17:42:40.708Z,25.69
2022-08-26T17:45:08.437Z,25.44
2022-08-26T17:47:34.948Z,25.29
2022-08-26T17:50:02.257Z,25.22
2022-08-26T17:52:29.281Z,25.45
2022-08-26T17:54:56.828Z,25.23
2022-08-26T17:57:24.774Z,25.39
2022-08-26T17:59:52.776Z,25.27
2022-08-26T18:02:20.919Z,25.05
2022-08-26T18:04:47.438Z,25.04
2022-08-26T18:07:14.468Z,24.99
2022-08-26T18:09:40.900Z,24.96
2022-08-26T18:12:07.863Z,24.90
2022-08-26T18:14:34.355Z,24.86
2022-08-26T18:17:01.430Z,25.13
2022-08-26T18:19:29.352Z,25.10
2022-08-26T18:21:55.918Z,24.72
2022-08-26T18:24:22.449Z,24.78
2022-08-26T18:26:50.791Z,24.81
2022-08-26T18:29:19.294Z,24.84
2022-08-26T18:31:45.801Z,25.06
2022-08-26T18:34:12.844Z,24.80
2022-08-26T18:36:42.579Z,24.92
2022-08-26T18:39:10.562Z,25.04
2022-08-26T18:41:45.812Z,24.96
2022-08-26T18:44:14.204Z,24.77
2022-08-26T18:46:41.136Z,24.61
2022-08-26T18:49:08.282Z,24.47
2022-08-26T18:51:35.306Z,24.43
2022-08-26T18:54:05.348Z,24.25
2022-08-26T18:56:35.513Z,24.14
2022-08-26T18:59:03.308Z,24.40
2022-08-26T19:01:30.991Z,24.42
2022-08-26T19:03:59.524Z,24.72
2022-08-26T19:06:28.143Z,24.76
2022-08-26T19:08:54.981Z,24.81
2022-08-26T19:11:31.213Z,24.87
2022-08-26T19:13:58.595Z,24.61
2022-08-26T19:16:26.883Z,24.42
2022-08-26T19:18:54.440Z,24.53
2022-08-26T19:21:22.460Z,24.51
2022-08-26T19:23:49.847Z,24.75
2022-08-26T19:26:16.784Z,24.55
2022-08-26T19:28:43.358Z,24.61
2022-08-26T19:31:11.693Z,24.50
2022-08-26T19:33:43.001Z,24.50
2022-08-26T19:36:15.014Z,24.19
2022-08-26T19:38:42.716Z,24.43
2022-08-26T19:41:18.164Z,24.40
2022-08-26T19:43:46.271Z,24.39
2022-08-26T19:46:19.907Z,24.47
2022-08-26T19:48:47.369Z,24.11
2022-08-26T19:51:20.158Z,24.45
2022-08-26T19:53:48.204Z,24.10
2022-08-26T19:56:15.247Z,23.86
2022-08-26T19:58:42.150Z,24.07
2022-08-26T20:01:08.888Z,23.90
2022-08-26T20:03:36.054Z,23.84
2022-08-26T20:06:05.126Z,23.77
2022-08-26T20:08:32.532Z,23.69
2022-08-26T20:11:04.804Z,23.67
2022-08-26T20:13:32.303Z,23.66
2022-08-26T20:15:58.938Z,23.61
2022-08-26T20:18:44.060Z,23.60
2022-08-26T20:21:29.394Z,23.82
2022-08-26T20:24:01.990Z,23.92
2022-08-26T20:26:31.027Z,23.70
2022-08-26T20:28:57.832Z,23.97
2022-08-26T20:31:25.669Z,23.67
2022-08-26T20:33:52.740Z,23.81
2022-08-26T20:36:22.515Z,23.72
2022-08-26T20:38:50.224Z,23.48
2022-08-26T20:41:16.950Z,23.73
2022-08-26T20:43:44.385Z,23.75
2022-08-26T20:46:18.155Z,23.47
2022-08-26T20:48:47.899Z,23.42
2022-08-26T20:51:15.041Z,23.51
2022-08-26T20:53:41.583Z,23.43
2022-08-26T20:56:10.159Z,23.55
2022-08-26T20:58:37.557Z,23.47
2022-08-26T21:01:07.984Z,23.31
2022-08-26T21:03:36.136Z,23.42
2022-08-26T21:06:03.726Z,23.40
2022-08-26T21:08:33.156Z,23.33
2022-08-26T21:11:00.952Z,23.24
2022-08-26T21:13:35.755Z,23.32
2022-08-26T21:16:10.410Z,23.40
2022-08-26T21:18:36.922Z,23.26
2022-08-26T21:21:08.189Z,23.16
2022-08-26T21:23:36.057Z,23.31
2022-08-26T21:26:04.952Z,23.22
2022-08-26T21:28:31.699Z,23.09
2022-08-26T21:30:58.169Z,23.02
2022-08-26T21:33:24.597Z,23.19
2022-08-26T21:35:55.855Z,22.91
2022-08-26T21:38:22.599Z,23.13
2022-08-26T21:41:02.337Z,23.04
2022-08-26T21:43:35.348Z,23.21
2022-08-26T21:46:11.370Z,22.97
2022-08-26T21:48:39.487Z,23.04
2022-08-26T21:51:06.306Z,22.96
2022-08-26T21:53:32.709Z,22.83
2022-08-26T21:55:59.151Z,22.84
2022-08-26T21:58:25.568Z,22.76
2022-08-26T22:00:52.260Z,22.76
2022-08-26T22:03:18.679Z,22.99
2022-08-26T22:05:50.395Z,22.75
2022-08-26T22:08:23.406Z,22.83
2022-08-26T22:10:54.985Z,22.88
2022-08-26T22:13:25.761Z,22.96
2022-08-26T22:15:52.186Z,22.96
2022-08-26T22:18:21.123Z,22.82
2022-08-26T22:20:47.909Z,22.76
2022-08-26T22:23:14.342Z,22.59
2022-08-26T22:25:44.271Z,22.76
2022-08-26T22:28:10.863Z,22.93
2022-08-26T22:30:38.004Z,22.92
2022-08-26T22:33:05.533Z,22.61
2022-08-26T22:35:32.043Z,22.56
2022-08-26T22:37:59.222Z,22.70
2022-08-26T22:40:25.747Z,22.70
2022-08-26T22:42:55.704Z,22.71
2022-08-26T22:45:27.370Z,22.75
2022-08-26T22:47:53.858Z,22.55
2022-08-26T22:50:20.292Z,22.56
2022-08-26T22:52:46.802Z,22.56
2022-08-26T22:55:13.258Z,22.63
2022-08-26T22:57:39.790Z,22.72
2022-08-26T23:00:06.968Z,22.63
2022-08-26T23:02:38.339Z,22.81
2022-08-26T23:05:06.193Z,22.70
2022-08-26T23:07:33.251Z,22.81
2022-08-26T23:09:59.835Z,22.69
2022-08-26T23:12:27.511Z,22.64
2022-08-26T23:14:53.916Z,22.50
2022-08-26T23:17:21.318Z,22.63
2022-08-26T23:19:47.726Z,22.69
2022-08-26T23:22:14.317Z,22.68
2022-08-26T23:24:40.745Z,22.75
2022-08-26T23:27:07.252Z,22.88
2022-08-26T23:29:35.586Z,22.69
2022-08-26T23:32:04.153Z,22.79
2022-08-26T23:34:49.107Z,22.62
2022-08-26T23:37:15.600Z,22.84
2022-08-26T23:39:42.086Z,22.80
2022-08-26T23:42:08.547Z,22.68
2022-08-26T23:44:35.005Z,22.71
2022-08-26T23:47:01.653Z,22.79
2022-08-26T23:49:28.757Z,22.43
2022-08-26T23:52:13.944Z,22.54
2022-08-26T23:54:40.538Z,22.46
2022-08-26T23:57:07.609Z,22.62
2022-08-26T23:59:34.208Z,22.64
